sensor_id;sensor_type;location;lat;lon;timestamp;pressure;altitude;pressure_sealevel;temperature;humidity
49102;BME280;34913;47.520;19.186;2023-08-06T00:00:50;98545.31;;;20.08;100.00
49102;BME280;34913;47.520;19.186;2023-08-06T00:03:15;98536.84;;;20.05;100.00
49102;BME280;34913;47.520;19.186;2023-08-06T00:05:42;98534.97;;;20.05;100.00
49102;BME280;34913;47.520;19.186;2023-08-06T00:08:08;98547.94;;;20.15;100.00
49102;BME280;34913;47.520;19.186;2023-08-06T00:10:33;98546.00;;;20.22;100.00
49102;BME280;34913;47.520;19.186;2023-08-06T00:12:58;98548.00;;;20.27;100.00
49102;BME280;34913;47.520;19.186;2023-08-06T00:15:24;98557.72;;;20.28;100.00
49102;BME280;34913;47.520;19.186;2023-08-06T00:17:49;98555.63;;;20.30;100.00
49102;BME280;34913;47.520;19.186;2023-08-06T00:20:15;98556.00;;;20.33;100.00
49102;BME280;34913;47.520;19.186;2023-08-06T00:22:40;98562.06;;;20.29;100.00
49102;BME280;34913;47.520;19.186;2023-08-06T00:25:06;98572.41;;;20.32;100.00
49102;BME280;34913;47.520;19.186;2023-08-06T00:27:31;98565.56;;;20.29;100.00
49102;BME280;34913;47.520;19.186;2023-08-06T00:29:58;98548.81;;;20.27;100.00
49102;BME280;34913;47.520;19.186;2023-08-06T00:32:24;98550.69;;;20.27;100.00
49102;BME280;34913;47.520;19.186;2023-08-06T00:34:49;98542.59;;;20.27;100.00
49102;BME280;34913;47.520;19.186;2023-08-06T00:37:17;98532.06;;;20.25;100.00
49102;BME280;34913;47.520;19.186;2023-08-06T00:39:44;98526.91;;;20.24;100.00
49102;BME280;34913;47.520;19.186;2023-08-06T00:42:10;98532.38;;;20.17;100.00
49102;BME280;34913;47.520;19.186;2023-08-06T00:44:37;98535.88;;;20.18;100.00
49102;BME280;34913;47.520;19.186;2023-08-06T00:47:04;98531.09;;;20.20;100.00
49102;BME280;34913;47.520;19.186;2023-08-06T00:49:29;98514.69;;;20.21;100.00
49102;BME280;34913;47.520;19.186;2023-08-06T00:51:56;98513.28;;;20.19;100.00
49102;BME280;34913;47.520;19.186;2023-08-06T00:54:22;98512.47;;;20.18;100.00
49102;BME280;34913;47.520;19.186;2023-08-06T00:56:48;98507.06;;;20.18;100.00
49102;BME280;34913;47.520;19.186;2023-08-06T00:59:14;98508.25;;;20.04;100.00
49102;BME280;34913;47.520;19.186;2023-08-06T01:01:40;98505.50;;;20.11;100.00
49102;BME280;34913;47.520;19.186;2023-08-06T01:04:05;98498.22;;;20.11;100.00
49102;BME280;34913;47.520;19.186;2023-08-06T01:12:13;98502.56;;;20.12;100.00
49102;BME280;34913;47.520;19.186;2023-08-06T01:15:00;98496.13;;;20.13;100.00
49102;BME280;34913;47.520;19.186;2023-08-06T01:17:29;98492.38;;;20.14;100.00
49102;BME280;34913;47.520;19.186;2023-08-06T01:19:55;98494.06;;;20.15;100.00
49102;BME280;34913;47.520;19.186;2023-08-06T01:22:20;98487.53;;;20.23;100.00
49102;BME280;34913;47.520;19.186;2023-08-06T01:24:49;98486.25;;;20.25;100.00
49102;BME280;34913;47.520;19.186;2023-08-06T01:27:23;98481.03;;;20.30;100.00
49102;BME280;34913;47.520;19.186;2023-08-06T01:30:02;98481.03;;;20.30;100.00
49102;BME280;34913;47.520;19.186;2023-08-06T01:32:29;98474.13;;;20.34;100.00
49102;BME280;34913;47.520;19.186;2023-08-06T01:34:59;98471.50;;;20.28;100.00
49102;BME280;34913;47.520;19.186;2023-08-06T01:37:25;98472.31;;;20.28;100.00
49102;BME280;34913;47.520;19.186;2023-08-06T01:39:51;98471.59;;;20.21;100.00
49102;BME280;34913;47.520;19.186;2023-08-06T01:42:17;98470.75;;;20.21;100.00
49102;BME280;34913;47.520;19.186;2023-08-06T01:44:42;98463.72;;;20.20;100.00
49102;BME280;34913;47.520;19.186;2023-08-06T01:47:07;98458.66;;;20.12;100.00
49102;BME280;34913;47.520;19.186;2023-08-06T01:49:33;98444.81;;;20.08;100.00
49102;BME280;34913;47.520;19.186;2023-08-06T01:51:58;98444.00;;;20.07;100.00
49102;BME280;34913;47.520;19.186;2023-08-06T01:54:24;98434.19;;;20.13;100.00
49102;BME280;34913;47.520;19.186;2023-08-06T01:56:49;98436.28;;;20.11;100.00
49102;BME280;34913;47.520;19.186;2023-08-06T01:59:14;98433.13;;;20.14;100.00
49102;BME280;34913;47.520;19.186;2023-08-06T02:01:41;98429.59;;;20.14;100.00
49102;BME280;34913;47.520;19.186;2023-08-06T02:04:06;98430.22;;;20.16;100.00
49102;BME280;34913;47.520;19.186;2023-08-06T02:06:32;98418.84;;;20.14;100.00
49102;BME280;34913;47.520;19.186;2023-08-06T02:08:57;98420.72;;;20.13;100.00
49102;BME280;34913;47.520;19.186;2023-08-06T02:11:23;98414.97;;;20.10;100.00
49102;BME280;34913;47.520;19.186;2023-08-06T02:13:48;98423.63;;;20.12;100.00
49102;BME280;34913;47.520;19.186;2023-08-06T02:16:13;98421.63;;;20.07;100.00
49102;BME280;34913;47.520;19.186;2023-08-06T02:18:39;98415.19;;;20.08;100.00
49102;BME280;34913;47.520;19.186;2023-08-06T02:21:04;98411.81;;;20.13;100.00
49102;BME280;34913;47.520;19.186;2023-08-06T02:23:30;98409.88;;;20.01;100.00
49102;BME280;34913;47.520;19.186;2023-08-06T02:26:03;98416.69;;;20.04;100.00
49102;BME280;34913;47.520;19.186;2023-08-06T02:28:29;98406.16;;;20.02;100.00
49102;BME280;34913;47.520;19.186;2023-08-06T02:30:55;98410.25;;;20.05;100.00
49102;BME280;34913;47.520;19.186;2023-08-06T02:33:20;98402.16;;;20.05;100.00
49102;BME280;34913;47.520;19.186;2023-08-06T02:35:46;98398.28;;;20.01;100.00
49102;BME280;34913;47.520;19.186;2023-08-06T02:38:11;98399.34;;;20.00;100.00
49102;BME280;34913;47.520;19.186;2023-08-06T02:40:43;98388.56;;;20.00;100.00
49102;BME280;34913;47.520;19.186;2023-08-06T02:43:09;98388.78;;;19.98;100.00
49102;BME280;34913;47.520;19.186;2023-08-06T02:45:34;98382.81;;;19.96;100.00
49102;BME280;34913;47.520;19.186;2023-08-06T02:47:59;98380.69;;;19.98;100.00
49102;BME280;34913;47.520;19.186;2023-08-06T02:50:25;98390.28;;;19.94;100.00
49102;BME280;34913;47.520;19.186;2023-08-06T02:52:50;98391.13;;;19.95;100.00
49102;BME280;34913;47.520;19.186;2023-08-06T02:55:16;98392.69;;;20.02;100.00
49102;BME280;34913;47.520;19.186;2023-08-06T02:57:41;98390.88;;;19.96;100.00
49102;BME280;34913;47.520;19.186;2023-08-06T03:00:07;98389.31;;;19.89;100.00
49102;BME280;34913;47.520;19.186;2023-08-06T03:02:32;98379.84;;;19.86;100.00
49102;BME280;34913;47.520;19.186;2023-08-06T03:04:58;98385.50;;;19.96;100.00
49102;BME280;34913;47.520;19.186;2023-08-06T03:07:23;98372.56;;;19.87;100.00
49102;BME280;34913;47.520;19.186;2023-08-06T03:09:49;98378.13;;;19.92;100.00
49102;BME280;34913;47.520;19.186;2023-08-06T03:12:14;98367.53;;;19.90;100.00
49102;BME280;34913;47.520;19.186;2023-08-06T03:14:39;98371.09;;;19.91;100.00
49102;BME280;34913;47.520;19.186;2023-08-06T03:17:05;98384.75;;;19.89;100.00
49102;BME280;34913;47.520;19.186;2023-08-06T03:19:30;98383.50;;;19.92;100.00
49102;BME280;34913;47.520;19.186;2023-08-06T03:21:56;98376.69;;;19.89;100.00
49102;BME280;34913;47.520;19.186;2023-08-06T03:24:21;98371.75;;;19.86;100.00
49102;BME280;34913;47.520;19.186;2023-08-06T03:26:47;98370.34;;;19.84;100.00
49102;BME280;34913;47.520;19.186;2023-08-06T03:29:12;98373.13;;;19.77;100.00
49102;BME280;34913;47.520;19.186;2023-08-06T03:31:38;98374.16;;;19.76;100.00
49102;BME280;34913;47.520;19.186;2023-08-06T03:34:03;98372.53;;;19.75;100.00
49102;BME280;34913;47.520;19.186;2023-08-06T03:36:28;98374.38;;;19.74;100.00
49102;BME280;34913;47.520;19.186;2023-08-06T03:38:54;98372.28;;;19.76;100.00
49102;BME280;34913;47.520;19.186;2023-08-06T03:41:19;98377.22;;;19.79;100.00
49102;BME280;34913;47.520;19.186;2023-08-06T03:43:45;98373.25;;;19.82;100.00
49102;BME280;34913;47.520;19.186;2023-08-06T03:46:10;98369.59;;;19.76;100.00
49102;BME280;34913;47.520;19.186;2023-08-06T03:48:35;98373.78;;;19.72;100.00
49102;BME280;34913;47.520;19.186;2023-08-06T03:51:01;98367.22;;;19.68;100.00
49102;BME280;34913;47.520;19.186;2023-08-06T03:53:27;98370.97;;;19.67;100.00
49102;BME280;34913;47.520;19.186;2023-08-06T03:55:52;98362.66;;;19.69;100.00
49102;BME280;34913;47.520;19.186;2023-08-06T03:58:18;98362.88;;;19.67;100.00
49102;BME280;34913;47.520;19.186;2023-08-06T04:00:43;98371.63;;;19.63;100.00
49102;BME280;34913;47.520;19.186;2023-08-06T04:03:09;98364.59;;;19.62;100.00
49102;BME280;34913;47.520;19.186;2023-08-06T04:05:34;98358.00;;;19.58;100.00
49102;BME280;34913;47.520;19.186;2023-08-06T04:08:00;98361.78;;;19.50;100.00
49102;BME280;34913;47.520;19.186;2023-08-06T04:10:25;98354.22;;;19.40;100.00
49102;BME280;34913;47.520;19.186;2023-08-06T04:12:51;98364.25;;;19.33;100.00
49102;BME280;34913;47.520;19.186;2023-08-06T04:15:16;98359.75;;;19.27;100.00
49102;BME280;34913;47.520;19.186;2023-08-06T04:17:42;98350.31;;;19.18;100.00
49102;BME280;34913;47.520;19.186;2023-08-06T04:20:07;98354.34;;;19.09;100.00
49102;BME280;34913;47.520;19.186;2023-08-06T04:22:33;98345.69;;;19.07;100.00
49102;BME280;34913;47.520;19.186;2023-08-06T04:24:58;98345.91;;;19.05;100.00
49102;BME280;34913;47.520;19.186;2023-08-06T04:27:24;98339.19;;;18.96;100.00
49102;BME280;34913;47.520;19.186;2023-08-06T04:29:49;98336.03;;;18.99;100.00
49102;BME280;34913;47.520;19.186;2023-08-06T04:32:14;98342.22;;;19.00;100.00
49102;BME280;34913;47.520;19.186;2023-08-06T04:34:40;98342.22;;;19.00;100.00
49102;BME280;34913;47.520;19.186;2023-08-06T04:37:05;98340.97;;;19.02;100.00
49102;BME280;34913;47.520;19.186;2023-08-06T04:39:31;98342.59;;;19.03;100.00
49102;BME280;34913;47.520;19.186;2023-08-06T04:41:56;98342.00;;;19.01;100.00
49102;BME280;34913;47.520;19.186;2023-08-06T04:44:25;98342.75;;;18.90;100.00
49102;BME280;34913;47.520;19.186;2023-08-06T04:46:51;98342.25;;;18.75;100.00
49102;BME280;34913;47.520;19.186;2023-08-06T04:49:17;98339.00;;;18.66;100.00
49102;BME280;34913;47.520;19.186;2023-08-06T04:51:42;98338.19;;;18.65;100.00
49102;BME280;34913;47.520;19.186;2023-08-06T04:54:08;98337.16;;;18.66;100.00
49102;BME280;34913;47.520;19.186;2023-08-06T04:56:33;98330.16;;;18.59;100.00
49102;BME280;34913;47.520;19.186;2023-08-06T04:58:59;98328.09;;;18.54;100.00
49102;BME280;34913;47.520;19.186;2023-08-06T05:01:25;98325.88;;;18.51;100.00
49102;BME280;34913;47.520;19.186;2023-08-06T05:03:50;98338.03;;;18.54;100.00
49102;BME280;34913;47.520;19.186;2023-08-06T05:06:16;98334.53;;;18.53;100.00
49102;BME280;34913;47.520;19.186;2023-08-06T05:08:41;98326.94;;;18.44;100.00
49102;BME280;34913;47.520;19.186;2023-08-06T05:11:06;98330.00;;;18.47;100.00
49102;BME280;34913;47.520;19.186;2023-08-06T05:13:32;98325.28;;;18.49;100.00
49102;BME280;34913;47.520;19.186;2023-08-06T05:15:58;98323.00;;;18.46;100.00
49102;BME280;34913;47.520;19.186;2023-08-06T05:18:23;98321.97;;;18.47;100.00
49102;BME280;34913;47.520;19.186;2023-08-06T05:20:49;98328.56;;;18.51;100.00
49102;BME280;34913;47.520;19.186;2023-08-06T05:23:14;98328.94;;;18.55;100.00
49102;BME280;34913;47.520;19.186;2023-08-06T05:25:40;98320.31;;;18.46;100.00
49102;BME280;34913;47.520;19.186;2023-08-06T05:28:06;98328.97;;;18.48;100.00
49102;BME280;34913;47.520;19.186;2023-08-06T05:30:31;98328.59;;;18.45;100.00
49102;BME280;34913;47.520;19.186;2023-08-06T05:32:57;98323.81;;;18.47;100.00
49102;BME280;34913;47.520;19.186;2023-08-06T05:35:22;98327.19;;;18.42;100.00
49102;BME280;34913;47.520;19.186;2023-08-06T05:37:49;98320.34;;;18.39;100.00
49102;BME280;34913;47.520;19.186;2023-08-06T05:40:15;98321.44;;;18.32;100.00
49102;BME280;34913;47.520;19.186;2023-08-06T05:42:40;98322.34;;;18.26;100.00
49102;BME280;34913;47.520;19.186;2023-08-06T05:45:06;98319.69;;;18.19;100.00
49102;BME280;34913;47.520;19.186;2023-08-06T05:47:32;98317.22;;;18.18;100.00
49102;BME280;34913;47.520;19.186;2023-08-06T05:49:57;98319.09;;;18.17;100.00
49102;BME280;34913;47.520;19.186;2023-08-06T05:52:23;98311.22;;;18.16;100.00
49102;BME280;34913;47.520;19.186;2023-08-06T05:54:48;98301.31;;;18.16;100.00
49102;BME280;34913;47.520;19.186;2023-08-06T05:57:14;98306.69;;;18.16;100.00
49102;BME280;34913;47.520;19.186;2023-08-06T05:59:40;98300.66;;;18.21;100.00
49102;BME280;34913;47.520;19.186;2023-08-06T06:02:06;98295.66;;;18.24;100.00
49102;BME280;34913;47.520;19.186;2023-08-06T06:04:31;98300.88;;;18.19;100.00
49102;BME280;34913;47.520;19.186;2023-08-06T06:06:56;98296.34;;;18.20;100.00
49102;BME280;34913;47.520;19.186;2023-08-06T06:09:22;98297.75;;;18.22;100.00
49102;BME280;34913;47.520;19.186;2023-08-06T06:11:47;98300.88;;;18.19;100.00
49102;BME280;34913;47.520;19.186;2023-08-06T06:14:14;98294.69;;;18.19;100.00
49102;BME280;34913;47.520;19.186;2023-08-06T06:16:40;98305.44;;;18.19;100.00
49102;BME280;34913;47.520;19.186;2023-08-06T06:19:05;98308.34;;;18.17;100.00
49102;BME280;34913;47.520;19.186;2023-08-06T06:21:31;98308.34;;;18.17;100.00
49102;BME280;34913;47.520;19.186;2023-08-06T06:23:56;98305.44;;;18.19;100.00
49102;BME280;34913;47.520;19.186;2023-08-06T06:26:22;98313.22;;;18.27;100.00
49102;BME280;34913;47.520;19.186;2023-08-06T06:28:47;98311.59;;;18.26;100.00
49102;BME280;34913;47.520;19.186;2023-08-06T06:31:12;98310.69;;;18.32;100.00
49102;BME280;34913;47.520;19.186;2023-08-06T06:33:38;98311.31;;;18.34;100.00
49102;BME280;34913;47.520;19.186;2023-08-06T06:36:03;98324.50;;;18.42;100.00
49102;BME280;34913;47.520;19.186;2023-08-06T06:38:29;98324.44;;;18.49;100.00
49102;BME280;34913;47.520;19.186;2023-08-06T06:40:55;98324.63;;;18.47;100.00
49102;BME280;34913;47.520;19.186;2023-08-06T06:43:22;98329.41;;;18.45;100.00
49102;BME280;34913;47.520;19.186;2023-08-06T06:45:52;98332.94;;;18.46;100.00
49102;BME280;34913;47.520;19.186;2023-08-06T06:48:18;98333.97;;;18.45;100.00
49102;BME280;34913;47.520;19.186;2023-08-06T06:50:47;98325.91;;;18.45;100.00
49102;BME280;34913;47.520;19.186;2023-08-06T06:53:12;98325.09;;;18.44;100.00
49102;BME280;34913;47.520;19.186;2023-08-06T06:55:38;98325.69;;;18.46;100.00
49102;BME280;34913;47.520;19.186;2023-08-06T06:58:03;98323.44;;;18.43;100.00
49102;BME280;34913;47.520;19.186;2023-08-06T07:00:28;98320.34;;;18.39;100.00
49102;BME280;34913;47.520;19.186;2023-08-06T07:02:54;98317.13;;;18.31;100.00
49102;BME280;34913;47.520;19.186;2023-08-06T07:05:19;98314.66;;;18.29;100.00
49102;BME280;34913;47.520;19.186;2023-08-06T07:07:44;98318.38;;;18.28;100.00
49102;BME280;34913;47.520;19.186;2023-08-06T07:10:10;98328.69;;;18.31;100.00
49102;BME280;34913;47.520;19.186;2023-08-06T07:12:36;98333.91;;;18.26;100.00
49102;BME280;34913;47.520;19.186;2023-08-06T07:15:04;98333.91;;;18.26;100.00
49102;BME280;34913;47.520;19.186;2023-08-06T07:17:30;98340.31;;;18.25;100.00
49102;BME280;34913;47.520;19.186;2023-08-06T07:19:55;98353.53;;;18.27;100.00
49102;BME280;34913;47.520;19.186;2023-08-06T07:22:21;98356.53;;;18.37;100.00
49102;BME280;34913;47.520;19.186;2023-08-06T07:24:46;98353.25;;;18.35;100.00
49102;BME280;34913;47.520;19.186;2023-08-06T07:27:11;98355.34;;;18.33;100.00
49102;BME280;34913;47.520;19.186;2023-08-06T07:29:37;98357.69;;;18.16;100.00
49102;BME280;34913;47.520;19.186;2023-08-06T07:32:02;98363.16;;;18.03;100.00
49102;BME280;34913;47.520;19.186;2023-08-06T07:34:28;98362.38;;;17.96;100.00
49102;BME280;34913;47.520;19.186;2023-08-06T07:36:53;98361.91;;;17.99;100.00
49102;BME280;34913;47.520;19.186;2023-08-06T07:39:19;98364.63;;;17.92;100.00
49102;BME280;34913;47.520;19.186;2023-08-06T07:41:44;98366.72;;;17.90;100.00
49102;BME280;34913;47.520;19.186;2023-08-06T07:44:11;98358.69;;;17.83;100.00
49102;BME280;34913;47.520;19.186;2023-08-06T07:46:36;98352.72;;;17.81;100.00
49102;BME280;34913;47.520;19.186;2023-08-06T07:49:02;98348.19;;;17.69;100.00
49102;BME280;34913;47.520;19.186;2023-08-06T07:51:28;98334.78;;;17.69;100.00
49102;BME280;34913;47.520;19.186;2023-08-06T07:53:53;98331.50;;;17.73;100.00
49102;BME280;34913;47.520;19.186;2023-08-06T07:56:18;98332.28;;;17.80;100.00
49102;BME280;34913;47.520;19.186;2023-08-06T07:58:44;98329.38;;;17.82;100.00
49102;BME280;34913;47.520;19.186;2023-08-06T08:01:09;98320.72;;;17.80;100.00
49102;BME280;34913;47.520;19.186;2023-08-06T08:03:35;98330.22;;;17.82;100.00
49102;BME280;34913;47.520;19.186;2023-08-06T08:06:00;98326.25;;;17.85;100.00
49102;BME280;34913;47.520;19.186;2023-08-06T08:08:25;98326.44;;;17.90;100.00
49102;BME280;34913;47.520;19.186;2023-08-06T08:10:51;98327.97;;;17.79;100.00
49102;BME280;34913;47.520;19.186;2023-08-06T08:13:16;98327.88;;;17.93;100.00
49102;BME280;34913;47.520;19.186;2023-08-06T08:15:42;98345.84;;;17.92;100.00
49102;BME280;34913;47.520;19.186;2023-08-06T08:18:07;98339.06;;;17.90;100.00
49102;BME280;34913;47.520;19.186;2023-08-06T08:20:33;98346.03;;;17.97;100.00
49102;BME280;34913;47.520;19.186;2023-08-06T08:23:00;98361.91;;;17.99;100.00
49102;BME280;34913;47.520;19.186;2023-08-06T08:25:26;98372.88;;;17.97;100.00
49102;BME280;34913;47.520;19.186;2023-08-06T08:27:55;98379.06;;;17.98;100.00
49102;BME280;34913;47.520;19.186;2023-08-06T08:30:21;98373.16;;;17.82;100.00
49102;BME280;34913;47.520;19.186;2023-08-06T08:32:47;98373.56;;;17.86;100.00
49102;BME280;34913;47.520;19.186;2023-08-06T08:35:13;98342.59;;;17.83;100.00
49102;BME280;34913;47.520;19.186;2023-08-06T08:37:39;98347.34;;;17.81;100.00
49102;BME280;34913;47.520;19.186;2023-08-06T08:40:08;98350.47;;;17.78;100.00
49102;BME280;34913;47.520;19.186;2023-08-06T08:42:35;98366.53;;;17.85;100.00
49102;BME280;34913;47.520;19.186;2023-08-06T08:45:02;98383.84;;;17.89;100.00
49102;BME280;34913;47.520;19.186;2023-08-06T08:47:28;98376.84;;;17.88;100.00
49102;BME280;34913;47.520;19.186;2023-08-06T08:49:54;98373.72;;;17.91;100.00
49102;BME280;34913;47.520;19.186;2023-08-06T08:52:23;98371.25;;;17.96;99.41
49102;BME280;34913;47.520;19.186;2023-08-06T08:54:49;98370.28;;;17.77;98.50
49102;BME280;34913;47.520;19.186;2023-08-06T08:57:17;98360.56;;;17.76;98.84
49102;BME280;34913;47.520;19.186;2023-08-06T08:59:42;98358.91;;;17.82;96.90
49102;BME280;34913;47.520;19.186;2023-08-06T09:02:10;98361.81;;;17.80;98.67
49102;BME280;34913;47.520;19.186;2023-08-06T09:04:38;98360.09;;;17.93;97.15
49102;BME280;34913;47.520;19.186;2023-08-06T09:07:05;98357.63;;;17.91;97.71
49102;BME280;34913;47.520;19.186;2023-08-06T09:09:34;98363.22;;;17.90;99.24
49102;BME280;34913;47.520;19.186;2023-08-06T09:12:08;98354.53;;;17.94;98.00
49102;BME280;34913;47.520;19.186;2023-08-06T09:14:35;98355.50;;;18.00;95.55
49102;BME280;34913;47.520;19.186;2023-08-06T09:17:01;98354.91;;;17.98;95.69
49102;BME280;34913;47.520;19.186;2023-08-06T09:19:26;98348.09;;;18.02;97.12
49102;BME280;34913;47.520;19.186;2023-08-06T09:21:53;98347.03;;;18.03;95.34
49102;BME280;34913;47.520;19.186;2023-08-06T09:24:20;98354.69;;;17.99;95.22
49102;BME280;34913;47.520;19.186;2023-08-06T09:26:45;98353.50;;;17.95;98.08
49102;BME280;34913;47.520;19.186;2023-08-06T09:29:11;98367.13;;;17.94;98.14
49102;BME280;34913;47.520;19.186;2023-08-06T09:31:42;98362.75;;;17.99;94.04
49102;BME280;34913;47.520;19.186;2023-08-06T09:34:17;98376.97;;;18.06;97.97
49102;BME280;34913;47.520;19.186;2023-08-06T09:39:13;98400.50;;;18.11;93.32
49102;BME280;34913;47.520;19.186;2023-08-06T09:41:40;98402.25;;;17.85;94.95
49102;BME280;34913;47.520;19.186;2023-08-06T09:44:13;98407.19;;;17.89;97.90
49102;BME280;34913;47.520;19.186;2023-08-06T09:46:40;98398.31;;;17.88;98.71
49102;BME280;34913;47.520;19.186;2023-08-06T09:49:05;98405.13;;;17.84;98.50
49102;BME280;34913;47.520;19.186;2023-08-06T09:51:34;98402.28;;;17.79;96.94
49102;BME280;34913;47.520;19.186;2023-08-06T09:54:00;98396.47;;;17.82;96.88
49102;BME280;34913;47.520;19.186;2023-08-06T09:56:27;98403.94;;;17.67;96.18
49102;BME280;34913;47.520;19.186;2023-08-06T09:58:53;98406.81;;;17.78;93.67
49102;BME280;34913;47.520;19.186;2023-08-06T10:01:22;98412.59;;;17.82;93.56
49102;BME280;34913;47.520;19.186;2023-08-06T10:03:49;98409.91;;;17.75;94.35
49102;BME280;34913;47.520;19.186;2023-08-06T10:06:16;98404.97;;;17.79;96.00
49102;BME280;34913;47.520;19.186;2023-08-06T10:08:41;98405.56;;;17.81;95.20
49102;BME280;34913;47.520;19.186;2023-08-06T10:11:07;98407.44;;;17.74;96.63
49102;BME280;34913;47.520;19.186;2023-08-06T10:13:34;98423.78;;;17.52;96.10
49102;BME280;34913;47.520;19.186;2023-08-06T10:16:01;98425.63;;;17.58;94.96
49102;BME280;34913;47.520;19.186;2023-08-06T10:18:27;98434.91;;;17.56;95.27
49102;BME280;34913;47.520;19.186;2023-08-06T10:20:53;98435.31;;;17.53;94.87
49102;BME280;34913;47.520;19.186;2023-08-06T10:23:19;98437.00;;;17.47;97.70
49102;BME280;34913;47.520;19.186;2023-08-06T10:25:53;98434.72;;;17.51;96.93
49102;BME280;34913;47.520;19.186;2023-08-06T10:28:20;98434.09;;;17.55;96.17
49102;BME280;34913;47.520;19.186;2023-08-06T10:30:47;98440.69;;;17.53;97.04
49102;BME280;34913;47.520;19.186;2023-08-06T10:33:12;98444.00;;;17.62;94.36
49102;BME280;34913;47.520;19.186;2023-08-06T10:35:41;98448.50;;;17.68;94.07
49102;BME280;34913;47.520;19.186;2023-08-06T10:38:14;98447.50;;;17.55;93.98
49102;BME280;34913;47.520;19.186;2023-08-06T10:40:42;98443.59;;;17.45;97.61
49102;BME280;34913;47.520;19.186;2023-08-06T10:43:07;98437.41;;;17.51;95.59
49102;BME280;34913;47.520;19.186;2023-08-06T10:45:35;98433.28;;;17.42;96.28
49102;BME280;34913;47.520;19.186;2023-08-06T10:48:02;98450.81;;;17.51;95.96
49102;BME280;34913;47.520;19.186;2023-08-06T10:50:27;98444.63;;;17.50;94.44
49102;BME280;34913;47.520;19.186;2023-08-06T10:52:53;98441.94;;;17.50;96.51
49102;BME280;34913;47.520;19.186;2023-08-06T10:55:23;98450.00;;;17.50;97.36
49102;BME280;34913;47.520;19.186;2023-08-06T10:57:50;98453.91;;;17.48;96.40
49102;BME280;34913;47.520;19.186;2023-08-06T11:00:15;98448.34;;;17.49;94.82
49102;BME280;34913;47.520;19.186;2023-08-06T11:02:41;98449.78;;;17.52;94.42
49102;BME280;34913;47.520;19.186;2023-08-06T11:05:08;98462.56;;;17.50;95.00
49102;BME280;34913;47.520;19.186;2023-08-06T11:07:34;98451.47;;;17.40;92.99
49102;BME280;34913;47.520;19.186;2023-08-06T11:10:05;98454.75;;;17.48;91.86
49102;BME280;34913;47.520;19.186;2023-08-06T11:12:31;98455.34;;;17.50;92.76
49102;BME280;34913;47.520;19.186;2023-08-06T11:14:57;98464.00;;;17.59;92.03
49102;BME280;34913;47.520;19.186;2023-08-06T11:17:22;98453.47;;;17.64;93.52
49102;BME280;34913;47.520;19.186;2023-08-06T11:19:48;98459.44;;;17.66;93.63
49102;BME280;34913;47.520;19.186;2023-08-06T11:22:17;98460.91;;;17.62;93.13
49102;BME280;34913;47.520;19.186;2023-08-06T11:24:43;98451.84;;;17.63;90.85
49102;BME280;34913;47.520;19.186;2023-08-06T11:27:15;98451.81;;;17.70;91.52
49102;BME280;34913;47.520;19.186;2023-08-06T11:29:41;98449.34;;;17.81;89.55
49102;BME280;34913;47.520;19.186;2023-08-06T11:32:08;98449.91;;;17.90;89.96
49102;BME280;34913;47.520;19.186;2023-08-06T11:34:34;98456.09;;;17.97;90.39
49102;BME280;34913;47.520;19.186;2023-08-06T11:37:00;98455.28;;;17.90;90.05
49102;BME280;34913;47.520;19.186;2023-08-06T11:39:25;98461.22;;;18.05;88.59
49102;BME280;34913;47.520;19.186;2023-08-06T11:41:51;98459.34;;;18.12;88.52
49102;BME280;34913;47.520;19.186;2023-08-06T11:44:19;98461.22;;;18.05;90.20
49102;BME280;34913;47.520;19.186;2023-08-06T11:46:55;98460.78;;;18.15;90.50
49102;BME280;34913;47.520;19.186;2023-08-06T11:52:23;98469.50;;;18.10;87.06
49102;BME280;34913;47.520;19.186;2023-08-06T11:57:32;98470.72;;;18.08;87.26
49102;BME280;34913;47.520;19.186;2023-08-06T12:00:11;98472.19;;;18.04;88.23
49102;BME280;34913;47.520;19.186;2023-08-06T12:02:40;98477.97;;;18.01;88.61
49102;BME280;34913;47.520;19.186;2023-08-06T12:05:16;98492.66;;;17.92;89.31
49102;BME280;34913;47.520;19.186;2023-08-06T12:07:47;98489.59;;;17.88;89.73
49102;BME280;34913;47.520;19.186;2023-08-06T12:10:13;98488.09;;;17.92;88.69
49102;BME280;34913;47.520;19.186;2023-08-06T12:12:39;98491.44;;;17.88;89.43
49102;BME280;34913;47.520;19.186;2023-08-06T12:15:06;98484.84;;;17.77;89.93
49102;BME280;34913;47.520;19.186;2023-08-06T12:17:32;98500.72;;;17.85;88.66
49102;BME280;34913;47.520;19.186;2023-08-06T12:19:57;98494.13;;;17.81;90.80
49102;BME280;34913;47.520;19.186;2023-08-06T12:22:23;98491.06;;;17.77;89.81
49102;BME280;34913;47.520;19.186;2023-08-06T12:24:49;98496.59;;;17.82;90.49
49102;BME280;34913;47.520;19.186;2023-08-06T12:27:14;98503.84;;;17.82;89.98
49102;BME280;34913;47.520;19.186;2023-08-06T12:29:46;98499.50;;;17.88;88.32
49102;BME280;34913;47.520;19.186;2023-08-06T12:32:12;98507.13;;;17.91;88.34
49102;BME280;34913;47.520;19.186;2023-08-06T12:34:39;98495.56;;;17.90;87.53
49102;BME280;34913;47.520;19.186;2023-08-06T12:37:05;98506.94;;;17.85;87.14
49102;BME280;34913;47.520;19.186;2023-08-06T12:39:32;98502.19;;;17.88;88.18
49102;BME280;34913;47.520;19.186;2023-08-06T12:41:59;98500.53;;;17.87;88.32
49102;BME280;34913;47.520;19.186;2023-08-06T12:44:24;98502.56;;;17.84;89.87
49102;BME280;34913;47.520;19.186;2023-08-06T12:46:51;98513.13;;;17.86;89.12
49102;BME280;34913;47.520;19.186;2023-08-06T12:49:17;98503.00;;;17.88;91.02
49102;BME280;34913;47.520;19.186;2023-08-06T12:51:43;98505.69;;;17.88;90.24